Home > Products > Valid Products > TAF

000
FTUS41 KRLX 230200 AAA
TAFCKB
TAF AMD
KCKB 230223Z 2302/2324 00000KT 6SM SHRA BR BKN030
     FM230700 00000KT 4SM BR BKN030
     FM231300 00000KT P6SM BKN030
     FM231400 00000KT P6SM BKN035=



000
FTUS41 KRLX 230200 AAA
TAFBKW
TAF AMD
KBKW 230223Z 2302/2324 VRB03KT P6SM OVC070
     FM230300 VRB03KT 6SM SHRA BR BKN030
     FM230400 VRB03KT P6SM BKN020=



000
FTUS41 KRLX 230200 AAA
TAFPKB
TAF AMD
KPKB 230223Z 2302/2324 00000KT P6SM BKN100
     FM230800 00000KT 6SM BR BKN040
     FM231100 00000KT 3SM BR BKN025
     FM231300 00000KT P6SM BKN030
     FM231900 VRB03KT P6SM SCT035=



000
FTUS41 KRLX 230200 AAA
TAFCRW
TAF AMD
KCRW 230223Z 2302/2324 00000KT 4SM BR BKN040
     FM231000 00000KT 3SM BR BKN020
     FM231300 00000KT 6SM BR BKN025
     FM231500 00000KT P6SM BKN035=



000
FTUS41 KRLX 230200 AAA
TAFEKN
TAF AMD
KEKN 230223Z 2302/2324 00000KT 5SM SHRA BR BKN030
     FM230700 00000KT 4SM BR BKN015
     FM231000 00000KT 2SM BR BKN020
     FM231300 00000KT 6SM BR BKN025
     FM231500 VRB03KT P6SM BKN030=



000
FTUS41 KRLX 230200 AAA
TAFHTS
TAF AMD
KHTS 230223Z 2302/2324 00000KT 5SM BR BKN040
     FM231000 00000KT 3SM BR BKN020
     FM231300 00000KT 6SM BR BKN025
     FM231500 00000KT P6SM BKN035=



000
FTUS41 KRLX 222300
TAFPKB
TAF
KPKB 222327Z 2300/2324 00000KT P6SM BKN110
     FM230100 00000KT P6SM BKN015
     FM230800 00000KT 6SM BR BKN020
     FM231100 00000KT 3SM BR BKN025
     FM231300 00000KT P6SM BKN030
     FM231900 VRB03KT P6SM SCT035=



000
FTUS41 KRLX 222300
TAFCKB
TAF
KCKB 222327Z 2300/2324 00000KT P6SM BKN025
     FM230100 00000KT 6SM SHRA BR BKN015
     FM230700 00000KT 6SM BR BKN015
     FM231000 00000KT 4SM BR BKN030
     FM231300 00000KT P6SM BKN030
     FM231400 00000KT P6SM BKN035=



000
FTUS41 KRLX 222300
TAFEKN
TAF
KEKN 222327Z 2300/2324 00000KT P6SM BKN030
     FM230200 00000KT 6SM SHRA BR BKN015
     FM230700 00000KT 6SM BR BKN015
     FM231000 00000KT 2SM BR BKN020
     FM231300 00000KT 6SM BR BKN025
     FM231500 VRB03KT P6SM BKN030=



000
FTUS41 KRLX 222300
TAFBKW
TAF
KBKW 222327Z 2300/2324 27004KT 3SM SHRA BR BKN020
     FM230200 VRB03KT P6SM BKN020
     FM230300 VRB03KT 6SM SHRA BR BKN020
     FM230400 VRB03KT P6SM BKN020=



000
FTUS41 KRLX 222300
TAFCRW
TAF
KCRW 222327Z 2300/2324 00000KT 6SM BR VCTS BKN025CB
     FM230200 00000KT 6SM BR BKN020
     FM231000 00000KT 3SM BR BKN020
     FM231300 00000KT 6SM BR BKN025
     FM231500 00000KT P6SM BKN035=



000
FTUS41 KRLX 222300
TAFHTS
TAF
KHTS 222327Z 2300/2324 VRB03KT 3SM TSRA BR BKN030CB
     FM230200 00000KT 6SM BR BKN020
     FM231000 00000KT 3SM BR BKN020
     FM231300 00000KT 6SM BR BKN025
     FM231500 00000KT P6SM BKN035=



000
FTUS41 KRLX 222200 AAC
TAFHTS
TAF AMD
KHTS 222239Z 2223/2318 21005KT 2SM TSRA BR BKN025CB OVC035
     FM230000 00000KT P6SM VCTS BKN035CB
      TEMPO 2300/2303 2SM -SHRA BKN025
     FM230300 VRB03KT 6SM BR BKN030
     FM230800 VRB03KT 4SM BR BKN025
     FM231300 00000KT 6SM BR BKN010 BKN022=



000
FTUS41 KRLX 222100 AAB
TAFHTS
TAF AMD
KHTS 222107Z 2221/2318 21005KT 6SM BR VCTS BKN025CB OVC035
     FM230000 00000KT P6SM VCTS BKN035CB
      TEMPO 2300/2303 2SM -SHRA BKN025
     FM230300 VRB03KT 6SM BR BKN030
     FM230800 VRB03KT 4SM BR BKN025
     FM231300 00000KT 6SM BR BKN010 BKN022=



000
FTUS41 KRLX 222100 AAB
TAFCRW
TAF AMD
KCRW 222107Z 2221/2318 24006KT 4SM TSRA BR BKN025CB OVC040
     FM230100 VRB03KT 5SM BR BKN028
     FM230600 VRB03KT 4SM BR BKN022
     FM230900 00000KT 2SM BR BKN006
     FM231200 00000KT 4SM BR BKN012
     FM231600 00000KT P6SM BKN023=



000
FTUS41 KRLX 222100 AAA
TAFPKB
TAF AMD
KPKB 222107Z 2221/2318 20005KT P6SM BKN100
     FM222200 23005KT 4SM -SHRA BR VCTS BKN025CB
     FM230000 VRB03KT 6SM BR BKN025
     FM230300 VRB03KT 4SM BR BKN025
     FM231500 00000KT P6SM BKN035=



000
FTUS41 KRLX 222100 AAA
TAFEKN
TAF AMD
KEKN 222107Z 2221/2318 30003KT P6SM SCT019 OVC025
     FM222200 27004KT 4SM -SHRA BR BKN018
     FM230300 00000KT 4SM BR VCTS BKN025CB
     FM230600 00000KT 2SM BR BKN010
     FM230900 00000KT 5SM BR SCT005 BKN015
     FM231400 00000KT P6SM BKN021=



000
FTUS41 KRLX 222100 AAA
TAFCKB
TAF AMD
KCKB 222107Z 2221/2318 24005KT 4SM BR BKN050
     FM230300 VRB03KT 5SM BR BKN025
     FM230800 VRB03KT 2SM BR OVC010
     FM231300 00000KT 5SM BR BKN018
     FM231500 00000KT P6SM BKN035=



000
FTUS41 KRLX 222100 AAA
TAFBKW
TAF AMD
KBKW 222107Z 2221/2318 29007KT 6SM -SHRA BR VCTS BKN020CB
      TEMPO 2221/2222 2SM TSRA BR
     FM230100 VRB03KT 6SM BR BKN025
     FM230700 VRB03KT 2SM BR BKN010
     FM231600 32004KT P6SM BKN018=



000
FTUS41 KRLX 221900 AAA
TAFHTS
TAF AMD
KHTS 221957Z 2220/2318 21005KT P6SM VCTS BKN025CB OVC035
     FM230000 00000KT P6SM VCTS BKN035CB
      TEMPO 2300/2303 2SM -SHRA BKN025
     FM230300 VRB03KT 6SM BR BKN030
     FM230800 VRB03KT 4SM BR BKN025
     FM231300 00000KT 6SM BR BKN010 BKN022=



000
FTUS41 KRLX 221900 AAA
TAFCRW
TAF AMD
KCRW 221956Z 2220/2318 04003KT P6SM VCTS BKN015CB OVC025
     FM222100 24006KT 4SM TSRA BR BKN025CB OVC040
     FM230100 VRB03KT 5SM BR BKN028
     FM230600 VRB03KT 4SM BR BKN022
     FM230900 00000KT 2SM BR BKN006
     FM231200 00000KT 4SM BR BKN012
     FM231600 00000KT P6SM BKN023=



000
FTUS41 KRLX 221800 CCA
TAFHTS
TAF COR
KHTS 221808Z 2218/2318 21005KT P6SM VCTS BKN025CB OVC035
      TEMPO 2218/2220 2SM -TSRA BKN015CB
     FM230000 00000KT P6SM VCTS BKN035CB
      TEMPO 2300/2303 2SM -SHRA BKN025
     FM230300 VRB03KT 6SM BR BKN030
     FM230800 VRB03KT 4SM BR BKN025
     FM231300 00000KT 6SM BR BKN010 BKN022=



000
FTUS41 KRLX 221700 RRA
TAFHTS
TAF
KHTS 221741Z 2218/2318 21005KT P6SM VCTS BKN025CB OVC035
      TEMPO 2218/2220 3SM -SHRA BKN025
     FM230000 00000KT P6SM VCTS BKN035CB
      TEMPO 2300/2303 2SM -SHRA BKN025
     FM230300 VRB03KT 6SM BR BKN030
     FM230800 VRB03KT 4SM BR BKN025
     FM231300 00000KT 6SM BR BKN010 BKN022=



000
FTUS41 KRLX 221700 RRA
TAFBKW
TAF
KBKW 221741Z 2218/2318 29007KT 6SM -SHRA BR VCTS BKN015CB
      TEMPO 2218/2222 VRB12G25KT 2SM TSRA BR BKN012CB OVC016
     FM230100 VRB03KT 6SM BR BKN025
     FM230700 VRB03KT 2SM BR BKN010
     FM231600 32004KT P6SM BKN018=



000
FTUS41 KRLX 221700 RRA
TAFCKB
TAF
KCKB 221741Z 2218/2318 21004KT 6SM BR SCT008 OVC015
     FM222000 24005KT 4SM -SHRA BR BKN020
     FM230300 VRB03KT 5SM BR BKN025
     FM230800 VRB03KT 2SM BR OVC010
     FM231300 00000KT 5SM BR BKN018
     FM231500 00000KT P6SM BKN035=



000
FTUS41 KRLX 221700 RRA
TAFPKB
TAF
KPKB 221741Z 2218/2318 20005KT 6SM BR BKN015 OVC080
     FM222200 23005KT 4SM -SHRA BR VCTS BKN025CB
     FM230000 VRB03KT 6SM BR BKN025
     FM230300 VRB03KT 4SM BR BKN025
     FM231500 00000KT P6SM BKN035=



000
FTUS41 KRLX 221700 RRA
TAFEKN
TAF
KEKN 221741Z 2218/2318 30003KT P6SM SCT019 OVC025
     FM222200 27004KT 4SM -SHRA BR BKN018
     FM230300 00000KT 4SM BR VCTS BKN025CB
     FM230600 00000KT 2SM BR BKN010
     FM230900 00000KT 5SM BR SCT005 BKN015
     FM231400 00000KT P6SM BKN021=



000
FTUS41 KRLX 221700 RRA
TAFCRW
TAF
KCRW 221741Z 2218/2318 04003KT P6SM VCTS BKN007 BKN015CB OVC025
      TEMPO 2218/2221 6SM BR FEW007 SCT015
     FM222100 24006KT 4SM +TSRA BR BKN025CB OVC040
     FM230100 VRB03KT 5SM BR BKN028
     FM230600 VRB03KT 4SM BR BKN022
     FM230900 00000KT 2SM BR BKN006
     FM231200 00000KT 4SM BR BKN012
     FM231600 00000KT P6SM BKN023=



000
FTUS41 KRLX 221400 AAB
TAFCKB
TAF AMD
KCKB 221456Z 2215/2312 21004KT 6SM BR BKN008 OVC012
     FM221800 26004KT 6SM BR SCT015 BKN025 BKN080
     FM222000 24005KT 3SM +TSRA BR BKN020CB
     FM230100 VRB03KT 5SM BR BKN025
     FM230800 VRB03KT 2SM BR OVC010=



000
FTUS41 KRLX 221400 AAA
TAFEKN
TAF AMD
KEKN 221456Z 2215/2312 30003KT P6SM OVC015
     FM221900 27004KT 4SM +TSRA BR BKN020CB
     FM230100 00000KT 4SM BR BKN025
     FM230800 00000KT 2SM BR BKN010=



000
FTUS41 KRLX 221400 AAA
TAFPKB
TAF AMD
KPKB 221455Z 2215/2312 26005KT 6SM BR BKN011 OVC080
     FM221800 23005KT 4SM -SHRA BR VCTS BKN025CB
     FM222300 VRB03KT 6SM BR BKN025
     FM230300 VRB03KT 4SM BR BKN025=



000
FTUS41 KRLX 221400 AAA
TAFHTS
TAF AMD
KHTS 221454Z 2215/2312 21005KT P6SM SCT025 BKN080
     FM221900 23005KT 5SM -SHRA BR VCTS BKN030CB
     FM230100 VRB03KT 6SM BR BKN030
     FM230800 VRB03KT 4SM BR BKN020=



000
FTUS41 KRLX 221400 AAA
TAFCRW
TAF AMD
KCRW 221453Z 2215/2312 04003KT P6SM BKN005 BKN020
      TEMPO 2215/2218 2SM -RA BR SCT005 BKN019
     FM221800 06006KT P6SM SCT015 BKN035
     FM222100 24006KT 4SM +TSRA BR BKN025CB
     FM230100 VRB03KT 5SM BR BKN028
     FM230600 VRB03KT 2SM BR BKN020=



000
FTUS41 KRLX 221400 AAA
TAFBKW
TAF AMD
KBKW 221451Z 2215/2312 20004KT 6SM BR BKN004
     FM221700 26005KT 6SM BR SCT004 BKN035
     FM221800 30007KT 4SM +TSRA BR BKN025CB
     FM230100 VRB03KT 6SM BR BKN025
     FM230700 VRB03KT 2SM BR BKN010=



000
FTUS41 KRLX 221300 AAA
TAFCKB
TAF AMD
KCKB 221334Z 2214/2312 00000KT 6SM BR BKN008
     FM221500 26004KT P6SM SCT015 BKN025 BKN080
     FM221900 24005KT 3SM +TSRA BR BKN020CB
     FM230100 VRB03KT 5SM BR BKN025
     FM230800 VRB03KT 2SM BR OVC010=



000
FTUS41 KRLX 221100
TAFEKN
TAF
KEKN 221126Z 2212/2312 00000KT 5SM BR BKN025
      TEMPO 2212/2214 -SHRA OVC020
     FM221400 VRB03KT P6SM BKN025 BKN080
     FM221700 27004KT 4SM +TSRA BR BKN020CB
     FM230100 00000KT 4SM BR BKN025
     FM230800 00000KT 2SM BR BKN010=



000
FTUS41 KRLX 221100
TAFCRW
TAF
KCRW 221126Z 2212/2312 00000KT 5SM BR SCT001 SCT030 BKN080
     FM221300 00000KT P6SM BKN025
     FM221500 24005KT 6SM HZ BKN030 BKN080
      TEMPO 2215/2218 2SM TSRA BR OVC020CB
     FM222100 24006KT 4SM +TSRA BR BKN025CB
     FM230100 VRB03KT 5SM BR BKN028
     FM230600 VRB03KT 2SM BR BKN020=



000
FTUS41 KRLX 221100
TAFHTS
TAF
KHTS 221126Z 2212/2312 VRB03KT 6SM BR SCT025 BKN080
     FM221300 VRB03KT P6SM BKN025 BKN080
      TEMPO 2214/2216 2SM +TSRA BR BKN020CB
     FM221700 23005KT 5SM SHRA BR VCTS BKN030CB
     FM230100 VRB03KT 6SM BR BKN030
     FM230800 VRB03KT 4SM BR BKN020=



000
FTUS41 KRLX 221100
TAFBKW
TAF
KBKW 221126Z 2212/2312 VRB03KT 6SM -SHRA BR BKN007
      TEMPO 2212/2214 VRB12KT 2SM -TSRA BR BKN012CB
     FM221400 29007KT P6SM BKN020
     FM221800 30007KT 4SM +TSRA BR BKN025CB
     FM230100 VRB03KT 6SM BR BKN025
     FM230700 VRB03KT 2SM BR BKN010=



000
FTUS41 KRLX 221100
TAFCKB
TAF
KCKB 221126Z 2212/2312 00000KT 6SM BR BKN015
     FM221600 26004KT 4SM SHRA BR VCTS BKN025CB BKN080
     FM221900 24005KT 3SM +TSRA BR BKN020CB
     FM230100 VRB03KT 5SM BR BKN025
     FM230800 VRB03KT 2SM BR OVC010=



000
FTUS41 KRLX 221100
TAFPKB
TAF
KPKB 221126Z 2212/2312 VRB03KT 6SM BR SCT035 BKN080
     FM221400 VRB03KT 4SM SHRA BR BKN025 BKN080
      TEMPO 2214/2218 2SM +TSRA BR OVC020CB
     FM221800 23005KT 4SM SHRA BR VCTS BKN025CB
     FM222300 VRB03KT 6SM BR BKN025
     FM230300 VRB03KT 4SM BR BKN025=



000
FTUS41 KRLX 220900 AAA
TAFBKW
TAF AMD
KBKW 220917Z 2209/2306 VRB03KT 5SM SHRA BR BKN020
      TEMPO 2209/2211 1SM TSRA BR BKN010 OVC030CB
     FM221400 29007KT 5SM BR BKN020
     FM221800 30007KT 5SM BR VCTS BKN025CB
     FM230100 VRB03KT 6SM BR BKN025=



000
FTUS41 KRLX 220900 AAA
TAFCRW
TAF AMD
KCRW 220917Z 2209/2306 00000KT 5SM -SHRA BR SCT001 BKN080
      TEMPO 2209/2210 3SM SHRA BR BKN030
     FM221100 00000KT 4SM BR SCT001 SCT030 BKN080
     FM221300 00000KT P6SM BKN025
     FM221700 24005KT 6SM HZ VCTS BKN030CB
     FM222100 24006KT 5SM TSRA BR BKN025CB
     FM230100 VRB03KT 5SM BR BKN028=



000
FTUS41 KRLX 220900 AAA
TAFCKB
TAF AMD
KCKB 220917Z 2209/2306 VRB03KT 4SM SHRA BR SCT010 OVC030
      TEMPO 2209/2211 3/4SM TSRA BR BKN010 OVC030CB
     FM221100 00000KT 4SM BR BKN015
     FM221500 26004KT 4SM SHRA BR VCTS BKN025CB
     FM230100 VRB03KT 5SM BR BKN025=



000
FTUS41 KRLX 220900 AAA
TAFPKB
TAF AMD
KPKB 220917Z 2209/2306 21004KT 5SM BR SCT001 BKN050
     FM221200 VRB03KT 6SM BR BKN025 BKN080
     FM221400 VRB03KT 4SM SHRA BR VCTS SCT030CB BKN080
     FM221800 23005KT 4SM SHRA BR VCTS BKN025CB
     FM222300 VRB03KT 6SM BR BKN025
     FM230300 VRB03KT 4SM BR BKN025=



000
FTUS41 KRLX 220900 AAA
TAFHTS
TAF AMD
KHTS 220917Z 2209/2306 17003KT 4SM BR SCT001 BKN030
     FM221200 VRB03KT 4SM BR SCT025 BKN080
     FM221300 VRB03KT P6SM BKN025
     FM221700 23005KT 5SM SHRA BR VCTS BKN030CB
     FM230100 VRB03KT 6SM BR BKN030=



000
FTUS41 KRLX 220900 AAA
TAFEKN
TAF AMD
KEKN 220917Z 2209/2306 00000KT 5SM SHRA BR SCT015 OVC030
      TEMPO 2209/2211 1SM +TSRA BR BKN010 OVC030CB
     FM221200 00000KT 5SM BR BKN010
     FM221400 VRB03KT P6SM BKN020
     FM221700 27004KT 5SM SHRA BR VCTS BKN020CB
     FM230100 00000KT 4SM BR BKN025=



000
FTUS41 KRLX 220500
TAFEKN
TAF
KEKN 220536Z 2206/2306 00000KT 6SM BR BKN015
     FM220800 00000KT 4SM SHRA BR SCT015 OVC030
      TEMPO 2208/2212 1SM +TSRA BR BKN010 OVC030CB
     FM221200 00000KT 2SM BR BKN010
     FM221400 VRB03KT 4SM BR BKN015
     FM221600 27004KT 5SM SHRA BR VCTS BKN020CB
     FM230100 00000KT 4SM BR BKN025=



000
FTUS41 KRLX 220500
TAFCRW
TAF
KCRW 220536Z 2206/2306 00000KT 4SM BR SCT001 OVC030
     FM220800 00000KT 4SM SHRA BR BKN025 BKN080
      TEMPO 2208/2210 29015G25KT 1SM +TSRA BR BKN010 BKN030CB
     FM221200 00000KT 4SM BR SCT001 BKN025
      TEMPO 2212/2214 -SHRA
     FM221400 00000KT 5SM BR BKN025
     FM221600 24005KT 5SM HZ VCTS BKN030CB
     FM230100 VRB03KT 5SM BR BKN028=



000
FTUS41 KRLX 220500
TAFHTS
TAF
KHTS 220536Z 2206/2306 21004KT 5SM SHRA BR BKN040 BKN080
      TEMPO 2206/2208 34015G30KT 1SM +TSRA BR BKN020CB BKN080
     FM220900 22004KT 3SM BR SCT001 BKN030
     FM221200 VRB03KT 4SM BR SCT025 BKN080
      TEMPO 2212/2215 2SM TSRA BR BKN025CB
     FM221500 VRB03KT 5SM HZ BKN025
     FM221800 23005KT 6SM HZ VCTS BKN030CB
     FM230100 VRB03KT 6SM BR BKN030=



000
FTUS41 KRLX 220500
TAFBKW
TAF
KBKW 220536Z 2206/2306 VRB03KT P6SM BKN035
     FM220900 VRB03KT 4SM SHRA BR BKN020
      TEMPO 2209/2212 1SM TSRA BR BKN010 OVC030CB
     FM221400 29007KT 5SM BR BKN020
     FM221800 30007KT 5SM BR VCTS BKN025CB
     FM230100 VRB03KT 6SM BR BKN025=



000
FTUS41 KRLX 220500
TAFPKB
TAF
KPKB 220536Z 2206/2306 19004KT 4SM SHRA BR BKN020 OVC080
      TEMPO 2206/2208 34015G30KT 3/4SM +TSRA BR SCT001 BKN010CB
     FM220900 VRB03KT 3SM BR SCT001 BKN015
      TEMPO 2209/2212 1SM BR BKN001
     FM221200 VRB03KT 2SM BR BKN025 BKN080
     FM221300 VRB03KT 4SM SHRA BR VCTS SCT030CB BKN080
     FM221800 23005KT 4SM SHRA BR VCTS BKN025CB
     FM222300 VRB03KT 6SM BR BKN025
     FM230300 VRB03KT 4SM BR BKN025=



000
FTUS41 KRLX 220500
TAFCKB
TAF
KCKB 220536Z 2206/2306 VRB03KT 6SM BR BKN010 OVC030
      TEMPO 2206/2207 4SM -SHRA
     FM220800 VRB03KT 4SM SHRA BR SCT010 OVC030
      TEMPO 2208/2212 1SM TSRA BR BKN010 OVC030CB
     FM221400 00000KT 4SM BR BKN015
     FM221700 26004KT 4SM SHRA BR VCTS BKN025CB
     FM230100 VRB03KT 5SM BR BKN025=



000
FTUS41 KRLX 220300 AAC
TAFPKB
TAF AMD
KPKB 220335Z 2204/2224 00000KT P6SM BKN030
     FM220500 22004KT 4SM SHRA BR BKN025 BKN080
      TEMPO 2205/2207 34015G30KT 1SM +TSRA BR SCT001 BKN010CB
     FM220800 VRB03KT 3SM BR SCT001 BKN015
     FM221000 VRB03KT 2SM BR BKN030
     FM221400 VRB03KT 4SM SHRA BR VCTS BKN080CB
     FM221800 23005KT 5SM SHRA BR VCTS BKN025CB
     FM222300 VRB03KT 6SM BR BKN025=



000
FTUS41 KRLX 220300 AAB
TAFHTS
TAF AMD
KHTS 220324Z 2203/2224 00000KT 6SM BR SCT030
     FM220500 21004KT 5SM BR BKN040 BKN080
      TEMPO 2205/2207 34015G30KT 1SM +TSRA BR BKN020CB BKN080
     FM220900 22004KT 3SM BR SCT001 BKN030
     FM221400 VRB03KT 4SM BR BKN080
     FM221500 VRB03KT P6SM BKN080=



000
FTUS41 KRLX 220200 AAB
TAFPKB
TAF AMD
KPKB 220244Z 2203/2224 00000KT P6SM BKN035
     FM220700 22004KT 4SM SHRA BKN030
     FM220800 VRB03KT 3SM BR BKN020
     FM221000 VRB03KT 2SM BR BKN030
     FM221400 VRB03KT 4SM SHRA BR VCTS BKN080CB
     FM221800 23005KT 5SM SHRA BR VCTS BKN025CB
     FM222300 VRB03KT 6SM BR BKN025=



000
FTUS41 KRLX 220200 AAB
TAFEKN
TAF AMD
KEKN 220232Z 2203/2224 00000KT 6SM BR BKN035
     FM220600 00000KT 3SM BR BKN025
     FM221200 00000KT 1 1/2SM BR BKN010
     FM221400 VRB03KT 4SM BR BKN015
     FM221600 27004KT 6SM SHRA BR VCTS BKN020CB
     FM221700 29004KT 5SM SHRA BR VCTS BKN025CB
     FM222300 00000KT 5SM SHRA BR VCTS BKN025CB=



000
FTUS41 KRLX 220200 AAA
TAFCRW
TAF AMD
KCRW 220232Z 2203/2224 00000KT 6SM BR BKN040
      TEMPO 2203/2204 6SM SHRA BKN030
     FM220500 00000KT 5SM BR BKN050
     FM220800 00000KT 3SM BR BKN045
     FM221100 00000KT 2SM BR BKN070
     FM221300 00000KT 3SM BR BKN080
     FM221500 00000KT 6SM BR BKN080=



000
FTUS41 KRLX 220200 AAB
TAFCKB
TAF AMD
KCKB 220232Z 2203/2224 00000KT 6SM BR BKN040
     FM221400 00000KT 4SM BR BKN015
     FM221600 VRB03KT 5SM SHRA BR VCTS BKN015CB
     FM222000 26004KT 5SM SHRA BR VCTS BKN025CB
     FM222300 00000KT 5SM SHRA BR VCTS BKN025CB=



000
FTUS41 KRLX 220200 AAA
TAFPKB
TAF AMD
KPKB 220232Z 2203/2224 00000KT 5SM BR BKN035
     FM220700 22004KT 4SM SHRA BKN030
     FM220800 VRB03KT 3SM BR BKN020
     FM221000 VRB03KT 2SM BR BKN030
     FM221400 VRB03KT 4SM SHRA BR VCTS BKN080CB
     FM221800 23005KT 5SM SHRA BR VCTS BKN025CB
     FM222300 VRB03KT 6SM BR BKN025=



000
FTUS41 KRLX 220200 AAA
TAFHTS
TAF AMD
KHTS 220232Z 2203/2224 00000KT P6SM BKN040
     FM220500 21004KT 6SM BR BKN050
     FM220900 22004KT 3SM BR BKN040
     FM221400 VRB03KT 4SM BR BKN080
     FM221500 VRB03KT P6SM BKN080=



000
FTUS41 KRLX 220200 AAA
TAFBKW
TAF AMD
KBKW 220232Z 2203/2224 VRB03KT P6SM BKN040
     FM221100 VRB03KT 4SM BR BKN020
     FM221700 29007KT P6SM BKN040
     FM221800 30007KT P6SM BKN025
     FM222000 30007KT 6SM BR BKN035=



000
FTUS41 KRLX 220100 AAA
TAFCKB
TAF AMD
KCKB 220106Z 2201/2224 00000KT 6SM BR BKN025
     FM221400 00000KT 4SM BR BKN015
     FM221600 VRB03KT 5SM SHRA BR VCTS BKN015CB
     FM222000 26004KT 5SM SHRA BR VCTS BKN025CB
     FM222300 00000KT 5SM SHRA BR VCTS BKN025CB=



000
FTUS41 KRLX 220100 AAA
TAFEKN
TAF AMD
KEKN 220104Z 2201/2224 00000KT 6SM BR BKN025
     FM220600 00000KT 3SM BR BKN025
     FM221200 00000KT 1 1/2SM BR BKN010
     FM221400 VRB03KT 4SM BR BKN015
     FM221600 27004KT 6SM SHRA BR VCTS BKN020CB
     FM221700 29004KT 5SM SHRA BR VCTS BKN025CB
     FM222300 00000KT 5SM SHRA BR VCTS BKN025CB=



000
FTUS41 KRLX 212300
TAFHTS
TAF
KHTS 212328Z 2200/2224 00000KT P6SM BKN040
     FM220500 21004KT 6SM BR BKN050
     FM220900 22004KT 3SM BR BKN040
     FM221400 VRB03KT 4SM BR BKN080
     FM221500 VRB03KT P6SM BKN080=



000
FTUS41 KRLX 212300
TAFCRW
TAF
KCRW 212328Z 2200/2224 00000KT P6SM BKN040
     FM220500 00000KT 5SM BR BKN050
     FM220800 00000KT 3SM BR BKN045
     FM221100 00000KT 2SM BR BKN070
     FM221300 00000KT 3SM BR BKN080
     FM221500 00000KT 6SM BR BKN080=



000
FTUS41 KRLX 212300
TAFPKB
TAF
KPKB 212328Z 2200/2224 00000KT P6SM VCSH BKN040
     FM220100 00000KT 5SM BR BKN035
     FM220700 22004KT 4SM BR BKN030
     FM220800 VRB03KT 3SM BR BKN020
     FM221000 VRB03KT 2SM BR BKN030
     FM221400 VRB03KT 4SM SHRA BR VCTS BKN080CB
     FM221800 23005KT 5SM SHRA BR VCTS BKN025CB
     FM222300 VRB03KT 6SM BR BKN025=



000
FTUS41 KRLX 212300
TAFCKB
TAF
KCKB 212328Z 2200/2224 00000KT P6SM OVC060
     FM220100 00000KT 3SM BR BKN030
     FM221400 00000KT 4SM BR BKN015
     FM221600 VRB03KT 5SM SHRA BR VCTS BKN015CB
     FM222000 26004KT 5SM SHRA BR VCTS BKN025CB
     FM222300 00000KT 5SM SHRA BR VCTS BKN025CB=



000
FTUS41 KRLX 212300
TAFEKN
TAF
KEKN 212328Z 2200/2224 00000KT P6SM OVC060
     FM220300 00000KT 6SM BR BKN030
     FM220600 00000KT 3SM BR BKN025
     FM221200 00000KT 1 1/2SM BR BKN010
     FM221400 VRB03KT 4SM BR BKN015
     FM221600 27004KT 6SM SHRA BR VCTS BKN020CB
     FM221700 29004KT 5SM SHRA BR VCTS BKN025CB
     FM222300 00000KT 5SM SHRA BR VCTS BKN025CB=



000
FTUS41 KRLX 212300
TAFBKW
TAF
KBKW 212328Z 2200/2224 VRB03KT P6SM BKN070
     FM220100 VRB03KT P6SM BKN040
     FM221100 VRB03KT 6SM BR BKN070
     FM221700 29007KT P6SM BKN040
     FM221800 30007KT P6SM BKN025
     FM222000 30007KT 6SM BR BKN035=



000
FTUS41 KRLX 211700
TAFBKW
TAF
KBKW 211720Z 2118/2218 26005KT P6SM SCT040
     FM212100 30004KT 6SM -SHRA VCTS BKN040CB OVC100
     FM212300 VRB03KT 4SM SHRA BR VCTS BKN040CB
     FM220100 00000KT P6SM SHRA VCTS BKN040CB
     FM220400 00000KT P6SM BKN040
     FM221100 00000KT 6SM BR BKN070
     FM221300 VRB03KT P6SM VCTS BKN080CB=



000
FTUS41 KRLX 211700
TAFHTS
TAF
KHTS 211720Z 2118/2218 19006KT P6SM SCT035
     FM211900 VRB03KT 6SM -SHRA VCTS BKN025CB OVC070
     FM220300 00000KT 6SM -RA BKN040
     FM220500 00000KT 6SM BR BKN040
     FM220900 00000KT 3SM BR BKN040
     FM221300 VRB03KT P6SM VCTS BKN080CB=



000
FTUS41 KRLX 211700
TAFPKB
TAF
KPKB 211720Z 2118/2218 18006KT 4SM -TSRA BR SCT015 BKN025CB
     FM220100 VRB03KT 5SM -SHRA BR VCTS SCT012 BKN035CB
     FM220300 00000KT 6SM BR BKN040
     FM221000 00000KT 2SM BR BKN035
     FM221400 00000KT P6SM TSRA BKN080CB=



000
FTUS41 KRLX 211700
TAFCKB
TAF
KCKB 211720Z 2118/2218 22009KT P6SM BKN025 BKN040
     FM212200 23006KT 4SM -SHRA BR VCTS BKN035CB
     FM220200 VRB03KT 6SM -RA BR BKN025
     FM220400 00000KT 6SM BR BKN035
     FM220800 00000KT 3SM BR BKN025
     FM221300 00000KT 4SM BR BKN015
     FM221600 23004KT 6SM TSRA BR BKN015CB=



000
FTUS41 KRLX 211700
TAFCRW
TAF
KCRW 211720Z 2118/2218 18004KT P6SM SCT022 BKN060
     FM212000 21004KT 6SM -SHRA VCTS SCT022 BKN040CB
     FM220300 00000KT P6SM -RA BKN025 BKN040
     FM221100 00000KT 2SM BR BKN070
     FM221400 00000KT 6SM BR VCTS BKN080CB=



000
FTUS41 KRLX 211700
TAFEKN
TAF
KEKN 211720Z 2118/2218 27005KT P6SM SCT025 BKN100
     FM212000 25006KT 6SM BR BKN035
     FM212200 VRB03KT 4SM -SHRA BR VCTS BKN025CB
     FM220200 00000KT 6SM BR BKN025
     FM221000 00000KT 1 1/2SM BR BKN010
     FM221600 27005KT 6SM TSRA BR BKN025CB=



000
FTUS41 KRLX 211700 RRA
TAFEKN
TAF
KEKN 211720Z 2117/2218 27005KT P6SM SCT025 BKN100
     FM212000 25006KT 6SM BR BKN035
     FM212200 VRB03KT 4SM -SHRA BR VCTS BKN025CB
     FM220200 00000KT 6SM BR BKN025
     FM221000 00000KT 1 1/2SM BR BKN010
     FM221600 27005KT 6SM TSRA BR BKN025CB=



000
FTUS41 KRLX 211700 RRA
TAFPKB
TAF
KPKB 211720Z 2117/2218 18006KT 4SM -TSRA BR SCT015 BKN025CB
     FM220100 VRB03KT 5SM -SHRA BR VCTS SCT012 BKN035CB
     FM220300 00000KT 6SM BR BKN040
     FM221000 00000KT 2SM BR BKN035
     FM221400 00000KT P6SM TSRA BKN080CB=



000
FTUS41 KRLX 211700 RRA
TAFBKW
TAF
KBKW 211720Z 2117/2218 26005KT P6SM SCT040
     FM212100 30004KT 6SM -SHRA VCTS BKN040CB OVC100
     FM212300 VRB03KT 4SM SHRA BR VCTS BKN040CB
     FM220100 00000KT P6SM SHRA VCTS BKN040CB
     FM220400 00000KT P6SM BKN040
     FM221100 00000KT 6SM BR BKN070
     FM221300 VRB03KT P6SM VCTS BKN080CB=



000
FTUS41 KRLX 211700 RRA
TAFCRW
TAF
KCRW 211720Z 2117/2218 18004KT P6SM VCTS SCT022 BKN060CB
     FM212000 21004KT 6SM -SHRA VCTS SCT022 BKN040CB
     FM220300 00000KT P6SM -RA BKN025 BKN040
     FM221100 00000KT 2SM BR BKN070
     FM221400 00000KT 6SM BR VCTS BKN080CB=



000
FTUS41 KRLX 211700 RRA
TAFHTS
TAF
KHTS 211720Z 2117/2218 19006KT P6SM SCT035
     FM211900 VRB03KT 6SM -SHRA VCTS BKN025CB OVC070
     FM220300 00000KT 6SM -RA BKN040
     FM220500 00000KT 6SM BR BKN040
     FM220900 00000KT 3SM BR BKN040
     FM221300 VRB03KT P6SM VCTS BKN080CB=



000
FTUS41 KRLX 211700 RRA
TAFCKB
TAF
KCKB 211720Z 2117/2218 22009KT P6SM BKN025 BKN040
     FM212000 23006KT 4SM -SHRA BR VCTS BKN035CB
     FM220200 VRB03KT 6SM -RA BR BKN025
     FM220400 00000KT 6SM BR BKN035
     FM220800 00000KT 3SM BR BKN025
     FM221300 00000KT 4SM BR BKN015
     FM221600 23004KT 6SM TSRA BR BKN015CB=



000
FTUS41 KRLX 211600 AAB
TAFPKB
TAF AMD
KPKB 211612Z 2116/2212 23006KT P6SM FEW015 BKN100
     FM211700 17006KT 4SM TSRA BR SCT012 BKN040CB
     FM212300 23005KT 5SM -SHRA BR VCTS BKN025CB
     FM220200 00000KT 6SM BR VCTS BKN040CB
     FM220500 00000KT 5SM BR BKN040
     FM221000 00000KT 2SM BR BKN035=



000
FTUS41 KRLX 211400 AAA
TAFEKN
TAF AMD
KEKN 211456Z 2115/2212 25003KT P6SM SCT025 BKN035
     FM211800 26004KT P6SM VCTS BKN035CB
     FM212100 25005KT 5SM TSRA BR BKN025CB
     FM220200 00000KT 6SM BR VCTS BKN025CB
     FM220500 00000KT 4SM BR BKN025
     FM220800 00000KT 2SM BR BKN015=



000
FTUS41 KRLX 211400 AAA
TAFBKW
TAF AMD
KBKW 211456Z 2115/2212 26003KT P6SM SCT025
     FM211800 29005KT P6SM VCTS BKN040CB
     FM212300 VRB03KT 4SM TSRA BR BKN040CB
     FM220200 00000KT P6SM VCTS BKN040CB
     FM220500 00000KT P6SM BKN040
     FM221100 00000KT 6SM BR BKN070=



000
FTUS41 KRLX 211400 AAA
TAFCKB
TAF AMD
KCKB 211455Z 2115/2212 22006KT P6SM BKN025
     FM211800 22006KT 4SM TSRA BR SCT010 BKN025CB
     FM212200 22006KT 6SM -TSRA BR BKN025CB
     FM220200 VRB03KT 6SM BR VCTS BKN025CB
     FM220500 00000KT 3SM BR BKN025=



000
FTUS41 KRLX 211400 AAA
TAFPKB
TAF AMD
KPKB 211453Z 2115/2212 00000KT 6SM BR BKN100
     FM211500 25004KT P6SM BKN040
     FM211700 23006KT 4SM TSRA BR SCT012 BKN040CB
     FM212300 23005KT 5SM -SHRA BR VCTS BKN025CB
     FM220200 00000KT 6SM BR VCTS BKN040CB
     FM220500 00000KT 5SM BR BKN040
     FM221000 00000KT 2SM BR BKN035=



000
FTUS41 KRLX 211400 AAA
TAFHTS
TAF AMD
KHTS 211452Z 2115/2212 20004KT P6SM SCT035 BKN050
     FM211630 23004KT 6SM -SHRA BR VCTS BKN035CB
     FM220200 00000KT P6SM VCTS BKN040CB
     FM220400 00000KT P6SM BKN040
     FM220500 00000KT 6SM BR BKN040
     FM220900 00000KT 3SM BR BKN040=



000
FTUS41 KRLX 211400 AAA
TAFCRW
TAF AMD
KCRW 211449Z 2115/2212 23006KT P6SM BKN060 BKN100
     FM211600 22007KT 6SM -SHRA SCT012 BKN020
     FM211700 22004KT P6SM VCTS SCT015 BKN040CB
     FM212200 00000KT 6SM TSRA BR BKN040CB
     FM220200 00000KT 6SM BR VCTS BKN040CB
     FM220500 00000KT 5SM BR BKN040
     FM221100 00000KT 2SM BR BKN070=



000
FTUS41 KRLX 211100
TAFEKN
TAF
KEKN 211133Z 2112/2212 25006KT 6SM BR SCT019
     FM211500 VRB03KT P6SM BKN050
     FM211700 26004KT P6SM VCTS BKN035CB
     FM212000 25005KT 5SM TSRA BR BKN025CB
     FM220200 00000KT 6SM BR VCTS BKN025CB
     FM220500 00000KT 4SM BR BKN025
     FM220800 00000KT 2SM BR BKN015=



000
FTUS41 KRLX 211100
TAFPKB
TAF
KPKB 211133Z 2112/2212 00000KT 6SM BR BKN100
     FM211500 25004KT P6SM BKN040
     FM211800 23006KT P6SM TSRA BKN040CB
     FM212300 23005KT 5SM TSRA BR BKN025CB
     FM220200 00000KT 6SM BR VCTS BKN040CB
     FM220500 00000KT 5SM BR BKN040
     FM221000 00000KT 2SM BR BKN035=



000
FTUS41 KRLX 211100
TAFCRW
TAF
KCRW 211133Z 2112/2212 20004KT P6SM BKN100
     FM211600 23004KT P6SM BKN040
     FM211700 22004KT P6SM VCTS BKN040CB
     FM212300 00000KT 6SM TSRA BR BKN040CB
     FM220200 00000KT 6SM BR VCTS BKN040CB
     FM220500 00000KT 5SM BR BKN040
     FM221100 00000KT 2SM BR BKN070=



000
FTUS41 KRLX 211100
TAFBKW
TAF
KBKW 211133Z 2112/2212 21003KT P6SM BKN025
     FM211500 29005KT P6SM BKN035
     FM211700 29005KT P6SM VCTS BKN040CB
     FM212300 VRB03KT 6SM TSRA BR BKN040CB
     FM220200 00000KT P6SM VCTS BKN040CB
     FM220500 00000KT P6SM BKN040
     FM221100 00000KT 6SM BR BKN070=



000
FTUS41 KRLX 211100
TAFCKB
TAF
KCKB 211133Z 2112/2212 22004KT P6SM BKN035
     FM211700 22006KT P6SM VCTS BKN025CB
     FM211900 22006KT 6SM TSRA BR BKN025CB
     FM220200 VRB03KT 6SM BR VCTS BKN025CB
     FM220500 00000KT 3SM BR BKN025=



000
FTUS41 KRLX 211100
TAFHTS
TAF
KHTS 211133Z 2112/2212 21003KT P6SM BKN100
     FM211500 24004KT P6SM BKN035
     FM211600 23004KT P6SM VCTS BKN035CB
     FM220200 00000KT P6SM VCTS BKN040CB
     FM220400 00000KT P6SM BKN040
     FM220500 00000KT 6SM BR BKN040
     FM220900 00000KT 3SM BR BKN040=



000
FTUS41 KRLX 211000 AAB
TAFBKW
TAF AMD
KBKW 211036Z 2111/2206 21003KT P6SM BKN025
     FM211500 28005KT P6SM BKN035
     FM211700 28006KT P6SM VCTS BKN025CB
     FM212000 27005KT 6SM TSRA BR BKN040CB
     FM220100 00000KT P6SM VCTS BKN040CB
     FM220500 00000KT P6SM BKN040=



000
FTUS41 KRLX 210900 AAA
TAFCRW
TAF AMD
KCRW 210929Z 2109/2206 18004KT P6SM BKN100
     FM211700 24004KT P6SM VCTS BKN025CB
     FM212000 24005KT P6SM VCTS BKN035CB
     FM212200 24004KT 6SM TSRA BR BKN040CB
     FM220200 00000KT P6SM VCTS BKN040CB
     FM220500 00000KT P6SM BKN040=



000
FTUS41 KRLX 210900 AAA
TAFHTS
TAF AMD
KHTS 210929Z 2109/2206 23004KT P6SM BKN040
     FM211500 22004KT P6SM VCTS BKN025CB
     FM212000 22005KT P6SM VCTS BKN035CB
     FM220400 00000KT P6SM BKN040=



000
FTUS41 KRLX 210900 AAA
TAFBKW
TAF AMD
KBKW 210929Z 2109/2206 VRB03KT P6SM SCT100
     FM211500 28005KT P6SM BKN035
     FM211700 28006KT P6SM VCTS BKN025CB
     FM212000 27005KT 6SM TSRA BR BKN040CB
     FM220100 00000KT P6SM VCTS BKN040CB
     FM220500 00000KT P6SM BKN040=



000
FTUS41 KRLX 210900 AAA
TAFPKB
TAF AMD
KPKB 210929Z 2109/2206 18004KT P6SM BKN100
     FM211500 22005KT P6SM BKN035
     FM211700 23006KT P6SM VCTS BKN035CB
     FM212200 22004KT 6SM TSRA BR BKN025CB
     FM220200 00000KT P6SM VCTS BKN040CB
     FM220500 00000KT 6SM BR BKN040=



000
FTUS41 KRLX 210900 AAA
TAFEKN
TAF AMD
KEKN 210929Z 2109/2206 00000KT 6SM BR BKN015
      TEMPO 2109/2113 3SM BR SCT025
     FM211400 VRB03KT P6SM BKN040
     FM211700 26004KT P6SM VCTS BKN025CB
     FM212100 26006KT 6SM TSRA BR BKN025CB
     FM220200 00000KT P6SM VCTS BKN025CB
     FM220500 00000KT 6SM BR BKN025=



000
FTUS41 KRLX 210900 AAB
TAFCKB
TAF AMD
KCKB 210929Z 2109/2206 00000KT P6SM SKC
      TEMPO 2109/2112 4SM BR
     FM211200 VRB03KT P6SM BKN035
     FM211700 24005KT P6SM VCTS BKN025CB
     FM212100 24005KT 6SM TSRA BR BKN025CB
     FM220000 00000KT 5SM TSRA BR BKN025CB
     FM220200 00000KT P6SM VCTS BKN025CB
     FM220500 00000KT 6SM BR BKN040=



000
FTUS41 KRLX 210700 AAA
TAFCKB
TAF AMD
KCKB 210717Z 2107/2206 00000KT P6SM SKC
      TEMPO 2108/2112 4SM BR
     FM211200 VRB03KT P6SM BKN025
     FM211700 24005KT P6SM VCTS BKN025CB
     FM212100 24005KT 6SM TSRA BR BKN025CB
     FM220000 00000KT 5SM TSRA BR BKN025CB
     FM220200 00000KT P6SM VCTS BKN025CB
     FM220500 00000KT 6SM BR BKN040=



000
FTUS41 KRLX 210500 RRA
TAFCRW
TAF
KCRW 210547Z 2106/2206 00000KT 4SM BR BKN050
      TEMPO 2106/2110 6SM BR
     FM211000 00000KT 2SM BR BKN025
      TEMPO 2110/2113 1/4SM FG VV001
     FM211700 24004KT P6SM VCTS BKN025CB
     FM212000 24005KT P6SM VCTS BKN035CB
     FM212200 24004KT 6SM TSRA BR BKN040CB
     FM220200 00000KT P6SM VCTS BKN040CB
     FM220500 00000KT P6SM BKN040=



000
FTUS41 KRLX 210500 RRA
TAFBKW
TAF
KBKW 210547Z 2106/2206 VRB03KT P6SM BKN035
     FM210800 00000KT 6SM BR BKN025
     FM211500 28005KT P6SM BKN015
     FM211700 28006KT P6SM VCTS BKN025CB
     FM212000 27005KT 6SM TSRA BR BKN040CB
     FM220100 00000KT P6SM VCTS BKN040CB
     FM220500 00000KT P6SM BKN040=



000
FTUS41 KRLX 210500 RRA
TAFHTS
TAF
KHTS 210547Z 2106/2206 23004KT P6SM BKN040
     FM210700 23004KT 6SM BR BKN040
     FM211000 VRB03KT 3SM BR BKN025
     FM211500 22004KT P6SM VCTS BKN025CB
     FM212000 22005KT P6SM VCTS BKN035CB
     FM220400 00000KT P6SM BKN040=



000
FTUS41 KRLX 210500 RRA
TAFPKB
TAF
KPKB 210547Z 2106/2206 00000KT 6SM BR FEW001
     FM211000 00000KT 2SM BR SCT001
      TEMPO 2110/2113 1/2SM FG BKN001
     FM211400 21004KT 3SM BR VCTS BKN060CB
     FM211500 22005KT P6SM BKN035
     FM211700 23006KT P6SM VCTS BKN035CB
     FM212200 22004KT 6SM TSRA BR BKN025CB
     FM220200 00000KT P6SM VCTS BKN040CB
     FM220500 00000KT 6SM BR BKN040=



000
FTUS41 KRLX 210500 RRA
TAFEKN
TAF
KEKN 210547Z 2106/2206 00000KT 6SM BR BKN025
      TEMPO 2106/2109 3SM BR SCT035
     FM210900 00000KT 1/2SM FG VV001
      TEMPO 2109/2113 3SM BR SCT001 BKN025
     FM211300 00000KT 2SM BR BKN025
     FM211500 VRB03KT P6SM BKN040
     FM211700 26004KT P6SM VCTS BKN025CB
     FM212100 26006KT 6SM TSRA BR BKN025CB
     FM220200 00000KT P6SM VCTS BKN025CB
     FM220500 00000KT 6SM BR BKN025=



000
FTUS41 KRLX 210500 RRA
TAFCKB
TAF
KCKB 210547Z 2106/2206 00000KT 1SM BR SCT008
      TEMPO 2106/2109 4SM BR
     FM210900 00000KT 2SM BR BKN025
      TEMPO 2110/2113 1/4SM FG VV001
     FM211300 00000KT 4SM BR BKN050
     FM211500 VRB03KT P6SM BKN025
     FM211700 24005KT P6SM VCTS BKN025CB
     FM212100 24005KT 6SM TSRA BR BKN025CB
     FM220000 00000KT 5SM TSRA BR BKN025CB
     FM220200 00000KT P6SM VCTS BKN025CB
     FM220500 00000KT 6SM BR BKN040=



000
FTUS41 KRLX 210200 AAB
TAFEKN
TAF AMD
KEKN 210224Z 2102/2124 00000KT P6SM SCT150
     FM210400 00000KT 4SM BR SCT050
     FM210600 00000KT 3/4SM BR BKN001
     FM210800 00000KT 1/4SM FG VV001
     FM211300 00000KT 1SM BR SCT001 BKN025
     FM211500 VRB03KT 5SM SHRA BR VCTS BKN040CB
     FM211800 27005KT P6SM SHRA VCTS BKN025CB
     FM212000 26006KT P6SM TSRA BKN030CB
     FM212200 26005KT P6SM TSRA BKN035CB=



000
FTUS41 KRLX 210200 AAB
TAFCKB
TAF AMD
KCKB 210224Z 2102/2124 00000KT P6SM BKN050
      TEMPO 2102/2103 00000KT 5SM -SHRA BR BKN070
     FM210900 00000KT 1 1/2SM BR BKN008
     FM211300 00000KT 2SM BR SCT008 BKN025
     FM211500 VRB03KT 4SM SHRA BR VCTS BKN040CB
     FM211700 23004KT P6SM VCTS BKN025CB
     FM211800 23005KT P6SM SHRA VCTS BKN015CB
     FM212000 24005KT P6SM TSRA BKN025CB=



000
FTUS41 KRLX 210200 AAA
TAFPKB
TAF AMD
KPKB 210224Z 2102/2124 00000KT P6SM SCT200
     FM210400 00000KT 6SM BR SCT080
     FM210500 00000KT 4SM BR BKN045
     FM210700 00000KT 1SM BR BKN001
     FM210800 00000KT 1/4SM FG VV001
     FM211300 VRB03KT 3SM -SHRA BKN025
     FM211500 21004KT 5SM BR VCTS BKN060CB
     FM211700 22006KT P6SM VCTS BKN050CB
     FM211800 23007KT P6SM SHRA VCTS BKN045CB
     FM212000 23005KT P6SM TSRA BKN040CB=



000
FTUS41 KRLX 210200 AAA
TAFBKW
TAF AMD
KBKW 210224Z 2102/2124 VRB03KT P6SM BKN150
     FM210300 VRB03KT P6SM SCT150
     FM210600 VRB03KT 6SM BR BKN035
     FM211100 VRB03KT 3SM BR SCT070
     FM211300 24004KT 6SM BR BKN050
     FM211500 28005KT P6SM BKN035
     FM211700 28006KT P6SM VCTS BKN040CB
     FM211900 28007KT P6SM TSRA BKN035CB
     FM212300 28006KT P6SM VCTS BKN035CB=



000
FTUS41 KRLX 210200 AAA
TAFCRW
TAF AMD
KCRW 210224Z 2102/2124 00000KT P6SM SCT150
     FM210400 00000KT 6SM BR SCT100
     FM210500 00000KT 4SM BR SCT080
     FM211000 00000KT 1SM BR BKN001
     FM211100 00000KT 1/2SM FG VV001
     FM211300 00000KT 1SM BR SCT001 BKN035
     FM211500 VRB03KT 6SM -SHRA BR BKN050
     FM211800 24005KT P6SM TSRA BKN035CB
     FM212000 24005KT P6SM VCTS BKN035CB=



000
FTUS41 KRLX 210200 AAA
TAFHTS
TAF AMD
KHTS 210224Z 2102/2124 22004KT P6SM SCT150
     FM210400 VRB03KT 6SM BR SCT100
     FM210600 VRB03KT 4SM BR SCT080
     FM211200 VRB03KT 2SM BR SCT045
     FM211300 VRB03KT 5SM -SHRA BKN040
     FM211700 23005KT P6SM -TSRA BKN030CB
     FM212000 22005KT P6SM VCTS BKN035CB=



000
FTUS41 KRLX 210200 AAA
TAFEKN
TAF AMD
KEKN 210201Z 2102/2124 00000KT P6SM SCT050
     FM210400 00000KT 4SM BR BKN050
     FM210600 00000KT 3/4SM BR BKN001
     FM210800 00000KT 1/4SM FG VV001
     FM211300 00000KT 1SM BR SCT001 BKN025
     FM211500 VRB03KT 5SM SHRA BR VCTS BKN040CB
     FM211800 27005KT P6SM SHRA VCTS BKN025CB
     FM212000 26006KT P6SM TSRA BKN030CB
     FM212200 26005KT P6SM TSRA BKN035CB=



000
FTUS41 KRLX 210100 AAA
TAFCKB
TAF AMD
KCKB 210136Z 2102/2124 00000KT P6SM BKN050
      TEMPO 2102/2103 00000KT 5SM -SHRA BR BKN070
     FM210900 00000KT 1 1/2SM BR BKN008
     FM211300 00000KT 2SM BR SCT008 BKN025
     FM211500 VRB03KT 4SM SHRA BR VCTS BKN040CB
     FM211700 23004KT P6SM VCTS BKN025CB
     FM211800 23005KT P6SM SHRA VCTS BKN015CB
     FM212000 24005KT P6SM TSRA BKN025CB=



000
FTUS41 KRLX 202300
TAFCKB
TAF
KCKB 202326Z 2100/2124 00000KT P6SM BKN050
     FM210200 00000KT 5SM BR BKN070
     FM210900 00000KT 1 1/2SM BR BKN008
     FM211300 00000KT 2SM BR SCT008 BKN025
     FM211500 VRB03KT 4SM SHRA BR VCTS BKN040CB
     FM211700 23004KT P6SM VCTS BKN025CB
     FM211800 23005KT P6SM SHRA VCTS BKN015CB
     FM212000 24005KT P6SM TSRA BKN025CB=



000
FTUS41 KRLX 202300
TAFPKB
TAF
KPKB 202326Z 2100/2124 00000KT P6SM SCT050
     FM210300 00000KT 6SM BR SCT080
     FM210400 00000KT 4SM BR BKN045
     FM210600 00000KT 1SM BR BKN001
     FM210700 00000KT 1/4SM FG VV001
     FM211300 VRB03KT 3SM -SHRA BKN025
     FM211500 21004KT 5SM BR VCTS BKN060CB
     FM211700 22006KT P6SM VCTS BKN050CB
     FM211800 23007KT P6SM SHRA VCTS BKN045CB
     FM212000 23005KT P6SM TSRA BKN040CB=



000
FTUS41 KRLX 202300
TAFCRW
TAF
KCRW 202326Z 2100/2124 00000KT P6SM BKN050
     FM210200 00000KT 6SM BR SCT100
     FM210300 00000KT 4SM BR BKN080
     FM211000 00000KT 1SM BR BKN001
     FM211100 00000KT 1/2SM FG VV001
     FM211300 00000KT 1SM BR SCT001 BKN035
     FM211500 VRB03KT 6SM -SHRA BR BKN050
     FM211800 24005KT P6SM TSRA BKN035CB
     FM212000 24005KT P6SM VCTS BKN035CB=



000
FTUS41 KRLX 202300
TAFBKW
TAF
KBKW 202326Z 2100/2124 VRB03KT P6SM BKN050
     FM210300 VRB03KT P6SM SCT035
     FM210600 VRB03KT 6SM BR BKN035
     FM211100 VRB03KT 3SM BR SCT070
     FM211300 24004KT 6SM BR BKN050
     FM211500 28005KT P6SM BKN035
     FM211700 28006KT P6SM VCTS BKN040CB
     FM211900 28007KT P6SM TSRA BKN035CB
     FM212300 28006KT P6SM VCTS BKN035CB=



000
FTUS41 KRLX 202300
TAFEKN
TAF
KEKN 202326Z 2100/2124 00000KT P6SM SCT050
     FM210200 00000KT 4SM BR BKN050
     FM210500 00000KT 3/4SM BR BKN001
     FM210600 00000KT 1/4SM FG VV001
     FM211300 00000KT 1SM BR SCT001 BKN025
     FM211500 VRB03KT 5SM SHRA BR VCTS BKN040CB
     FM211800 27005KT P6SM SHRA VCTS BKN025CB
     FM212000 26006KT P6SM TSRA BKN030CB
     FM212200 26005KT P6SM TSRA BKN035CB=



000
FTUS41 KRLX 202300
TAFHTS
TAF
KHTS 202326Z 2100/2124 22004KT P6SM SCT050
     FM210200 VRB03KT 6SM BR SCT100
     FM210600 VRB03KT 4SM BR SCT080
     FM211200 VRB03KT 2SM BR SCT045
     FM211300 VRB03KT 5SM -SHRA BKN040
     FM211700 23005KT P6SM -TSRA BKN030CB
     FM212000 22005KT P6SM VCTS BKN035CB=



000
FTUS41 KRLX 201700
TAFHTS
TAF
KHTS 201738Z 2018/2118 22008KT P6SM BKN040
     FM210000 25006KT P6SM SCT050
     FM210200 26005KT 6SM BR BKN100
     FM210600 00000KT 4SM -SHRA BR SCT012 BKN045
     FM210800 VRB03KT 3SM SHRA BR VCTS BKN025CB
     FM211200 22003KT 3SM -RA BR BKN050
     FM211400 23005KT P6SM BKN080=



000
FTUS41 KRLX 201700
TAFCKB
TAF
KCKB 201738Z 2018/2118 03005KT P6SM SCT035
     FM202000 04005KT P6SM SCT013 BKN060
     FM210000 00000KT P6SM BKN050
     FM210300 00000KT 4SM BR BKN070
     FM210900 00000KT 1 1/2SM BR BKN008
     FM211400 23004KT P6SM BKN023=



000
FTUS41 KRLX 201700
TAFEKN
TAF
KEKN 201738Z 2018/2118 00000KT P6SM SCT035 BKN050
     FM201900 24005KT P6SM BKN040
     FM210300 00000KT 2SM BR BKN040
     FM210500 00000KT 1/4SM FG VV001
     FM211100 00000KT 3SM BR BKN070
     FM211700 26004KT P6SM BKN040=



000
FTUS41 KRLX 201700
TAFBKW
TAF
KBKW 201738Z 2018/2118 28005KT P6SM BKN050
     FM210300 00000KT P6SM BKN025
     FM210900 24003KT P6SM SCT026
     FM211500 28005KT 6SM -SHRA VCTS BKN019CB=



000
FTUS41 KRLX 201700
TAFPKB
TAF
KPKB 201738Z 2018/2118 00000KT P6SM SCT050
     FM210100 00000KT P6SM BKN080
     FM210200 00000KT 6SM BR BKN080
     FM210400 00000KT 3SM BR BKN030
     FM210600 00000KT 1/4SM FG VV001
     FM211300 19003KT 2SM BR BKN170
      AMD NOT SKED=



000
FTUS41 KRLX 201700
TAFCRW
TAF
KCRW 201738Z 2018/2118 19005KT P6SM SCT040
     FM210200 00000KT 6SM BR BKN100
     FM210400 00000KT 3SM BR BKN090
     FM210800 00000KT 1SM BR BKN001
     FM211000 00000KT 2SM -SHRA BR BKN003 BKN012
     FM211430 24003KT 5SM SHRA VCTS BKN060CB BKN170=



000
FTUS41 KRLX 201600 AAC
TAFCKB
TAF AMD
KCKB 201655Z 2017/2112 03005KT P6SM SCT035
     FM202000 04005KT P6SM SCT013 BKN060
     FM210000 00000KT P6SM BKN050
     FM210300 00000KT 4SM BR BKN070
     FM210900 00000KT 1 1/2SM BR BKN008=



000
FTUS41 KRLX 201500 AAB
TAFEKN
TAF AMD
KEKN 201523Z 2015/2112 00000KT P6SM SCT035 BKN050
     FM201900 24005KT P6SM BKN040
     FM210300 00000KT 2SM BR BKN040
     FM210500 00000KT 1/4SM FG VV001=



000
FTUS41 KRLX 201500 AAB
TAFCKB
TAF AMD
KCKB 201503Z 2015/2112 03005KT P6SM BKN013 BKN090
     FM202000 04005KT P6SM SCT013 BKN060
     FM210000 00000KT P6SM BKN050
     FM210300 00000KT 4SM BR BKN070
     FM210900 00000KT 1 1/2SM BR BKN008=



000
FTUS41 KRLX 201500 AAA
TAFHTS
TAF AMD
KHTS 201501Z 2015/2112 21005KT P6SM SCT035
     FM201800 22008KT P6SM BKN040
     FM202100 24008KT P6SM BKN040
     FM210000 25006KT P6SM SCT050
     FM210200 26005KT 6SM BR BKN100
     FM210600 00000KT 4SM BR BKN045=



000
FTUS41 KRLX 201500 AAA
TAFPKB
TAF AMD
KPKB 201501Z 2015/2112 00000KT P6SM SCT050
     FM210100 00000KT P6SM BKN080
     FM210200 00000KT 6SM BR BKN080
     FM210400 00000KT 3SM BR BKN030
     FM210600 00000KT 1/4SM FG VV001
      AMD NOT SKED=



000
FTUS41 KRLX 201500 AAA
TAFCRW
TAF AMD
KCRW 201500Z 2015/2112 00000KT P6SM BKN013
     FM201600 19005KT P6SM SCT040
     FM210200 00000KT 6SM BR BKN100
     FM210400 00000KT 3SM BR BKN090
     FM211000 00000KT 1SM BR BKN001
     FM211100 00000KT 1/2SM FG VV001=



000
FTUS41 KRLX 201400 AAA
TAFCKB
TAF AMD
KCKB 201421Z 2014/2112 00000KT 3SM -RA BR FEW003 BKN009 BKN025
     FM201600 21007KT P6SM BKN040
     FM210000 00000KT P6SM BKN050
     FM210300 00000KT 4SM BR BKN070
     FM210900 00000KT 1 1/2SM BR BKN008=



000
FTUS41 KRLX 201400 AAB
TAFBKW
TAF AMD
KBKW 201419Z 2014/2112 20005KT P6SM BKN040
     FM201800 28005KT P6SM BKN050
     FM210300 00000KT P6SM BKN025=



000
FTUS41 KRLX 201200 AAA
TAFBKW
TAF AMD
KBKW 201217Z 2012/2112 00000KT 2SM -SHRA BR BKN002 BKN090
      TEMPO 2013/2015 4SM -TSRA BR BKN008 BKN025CB
     FM201500 27004KT 6SM -RA BR BKN040
     FM201800 28005KT P6SM BKN050
     FM210300 00000KT P6SM BKN025=



000
FTUS41 KRLX 201100 AAA
TAFEKN
TAF AMD
KEKN 201139Z 2012/2112 00000KT 3SM BR VCTS SCT001 BKN003CB
      TEMPO 2012/2013 4SM -SHRA BR SCT003 BKN025
     FM201300 00000KT 6SM -RA BR BKN025
      TEMPO 2013/2015 3SM -SHRA BR SCT015
     FM201900 24005KT P6SM VCTS BKN040CB
     FM210300 00000KT 2SM BR BKN040
     FM210500 00000KT 1/4SM FG VV001=



000
FTUS41 KRLX 201100
TAFCRW
TAF
KCRW 201126Z 2012/2112 00000KT 6SM SHRA BR VCTS OVC040CB
     FM201400 VRB03KT 6SM BR VCTS BKN035CB
     FM201600 19005KT P6SM VCTS BKN040CB
     FM202300 23005KT P6SM BKN050
     FM210200 00000KT 6SM BR BKN100
     FM210400 00000KT 3SM BR BKN090
     FM211000 00000KT 1SM BR BKN001
     FM211100 00000KT 1/2SM FG VV001=



000
FTUS41 KRLX 201100
TAFCKB
TAF
KCKB 201126Z 2012/2112 00000KT 3SM BR VCTS BKN035CB
     FM201300 VRB03KT 6SM -SHRA BR VCTS OVC040CB
      TEMPO 2013/2017 4SM -SHRA BR BKN025
     FM201700 21007KT P6SM VCTS BKN040CB
     FM210000 00000KT P6SM VCTS BKN050CB
     FM210300 00000KT 4SM BR BKN070
     FM210900 00000KT 1 1/2SM BR BKN008=



000
FTUS41 KRLX 201100
TAFBKW
TAF
KBKW 201126Z 2012/2112 00000KT 5SM TSRA BR BKN008CB BKN025
     FM201400 27004KT P6SM VCTS BKN040CB
     FM210300 00000KT P6SM BKN025=



000
FTUS41 KRLX 201100
TAFEKN
TAF
KEKN 201126Z 2012/2112 00000KT 3SM BR VCTS SCT001 BKN003CB
      TEMPO 2012/2013 00000KT 4SM BR SCT003 BKN025
     FM201300 00000KT P6SM VCTS BKN035CB
     FM201400 00000KT 6SM SHRA BR VCTS BKN025CB
     FM201900 24005KT P6SM VCTS BKN040CB
     FM210300 00000KT 2SM BR BKN040
     FM210500 00000KT 1/4SM FG VV001=



000
FTUS41 KRLX 201100
TAFHTS
TAF
KHTS 201126Z 2012/2112 00000KT 6SM BR BKN100
     FM201300 VRB03KT P6SM BKN040
     FM201800 22008KT P6SM VCTS BKN040CB
     FM202100 24008KT P6SM BKN040
     FM210000 25006KT P6SM SCT050
     FM210200 26005KT 6SM BR BKN100
     FM210600 00000KT 4SM BR BKN045=



000
FTUS41 KRLX 201100
TAFPKB
TAF
KPKB 201126Z 2012/2112 VRB03KT 6SM -SHRA BR SCT012 OVC025
     FM201300 18004KT P6SM OVC035
     FM201700 20006KT P6SM VCTS BKN040CB
     FM210000 00000KT P6SM SCT050
     FM210100 00000KT P6SM BKN080
     FM210200 00000KT 6SM BR BKN080
     FM210400 00000KT 3SM BR BKN030
     FM210600 00000KT 1/4SM FG VV001
      AMD NOT SKED=



000
FTUS41 KRLX 201000 AAB
TAFEKN
TAF AMD
KEKN 201046Z 2011/2106 00000KT 1/4SM FG VV001
      TEMPO 2011/2013 00000KT 4SM BR BKN025
     FM201300 00000KT 6SM SHRA BR VCTS BKN015CB
     FM201500 VRB03KT P6SM VCTS BKN015CB
     FM201700 25005KT 6SM SHRA BR VCTS BKN025CB
     FM201900 25004KT P6SM VCTS BKN035CB
     FM210200 00000KT 4SM BR VCTS BKN050CB
     FM210300 00000KT 2SM BR BKN040
     FM210500 00000KT 3/4SM BR BKN001=



000
FTUS41 KRLX 201000 AAD
TAFBKW
TAF AMD
KBKW 201046Z 2011/2106 VRB03KT 3SM BR BKN008
     FM201200 00000KT 5SM TSRA BR BKN025CB
     FM201400 27005KT P6SM BKN025
     FM201600 27006KT P6SM VCTS BKN025CB
     FM201800 26007KT 6SM SHRA BR VCTS BKN025CB
     FM201900 26007KT P6SM VCTS BKN035CB
     FM210200 00000KT P6SM BKN040=



000
FTUS41 KRLX 200900 CCA
TAFCRW
TAF COR
KCRW 200942Z 2010/2106 00000KT 1 1/2SM BR SCT001
     FM201000 29010G20KT 3SM TSRA BR BKN035CB
      TEMPO 2010/2012 1SM TSRA BR SCT008 BKN015CB OVC035
     FM201200 00000KT 6SM SHRA BR VCTS SCT008 OVC025CB
     FM201600 25007KT P6SM VCTS BKN035CB
     FM202300 23004KT P6SM BKN050
     FM210200 00000KT 6SM BR BKN120
     FM210500 00000KT 2SM BR BKN130=



000
FTUS41 KRLX 200900 AAB
TAFCRW
TAF AMD
KCRW 200941Z 2010/2106 29010G20KT 3SM TSRA BR BKN035CB
      TEMPO 2010/2012 1SM TSRA BR SCT008 BKN015CB OVC035
     FM201200 00000KT 6SM SHRA BR VCTS SCT008 OVC025CB
     FM201600 25007KT P6SM VCTS BKN035CB
     FM202300 23004KT P6SM BKN050
     FM210200 00000KT 6SM BR BKN120
     FM210500 00000KT 2SM BR BKN130=



000
FTUS41 KRLX 200900 AAB
TAFCKB
TAF AMD
KCKB 200917Z 2009/2106 VRB03KT 4SM BR FEW040
     FM201100 00000KT P6SM BKN035
     FM201300 00000KT 6SM SHRA BR VCTS OVC025CB
     FM201500 VRB03KT P6SM VCTS OVC025CB
     FM201700 23006KT 6SM SHRA BR VCTS BKN025CB
     FM201900 23006KT P6SM VCTS BKN035CB
     FM210300 00000KT 4SM BR BKN100=



000
FTUS41 KRLX 200900 AAB
TAFHTS
TAF AMD
KHTS 200915Z 2009/2106 29010G20KT 1SM TSRA BR SCT015 BKN040CB
      TEMPO 2009/2010 4SM -TSRA BR BKN020CB
     FM201000 VRB03KT 3SM SHRA BR VCTS OVC025CB
     FM201400 20005KT 6SM BR BKN025
     FM201700 24008KT P6SM VCTS BKN035CB
     FM202100 24006KT P6SM BKN040
     FM202200 24005KT P6SM VCTS BKN040CB
     FM210200 VRB03KT 6SM BR BKN200=



000
FTUS41 KRLX 200800 AAA
TAFCKB
TAF AMD
KCKB 200832Z 2009/2106 VRB03KT 4SM BR FEW040
     FM200900 00000KT 6SM BR BKN035
     FM201100 00000KT P6SM BKN025
     FM201300 00000KT 6SM SHRA BR VCTS OVC025CB
     FM201500 VRB03KT P6SM VCTS OVC025CB
     FM201700 23006KT 6SM SHRA BR VCTS BKN025CB
     FM201900 23006KT P6SM VCTS BKN035CB
     FM210300 00000KT 4SM BR BKN100=



000
FTUS41 KRLX 200800 AAA
TAFEKN
TAF AMD
KEKN 200832Z 2009/2106 00000KT 2SM BR SCT002 BKN025
      TEMPO 2009/2011 1/4SM FG VV001
     FM201100 00000KT 4SM BR BKN025
     FM201300 00000KT 6SM SHRA BR VCTS BKN015CB
     FM201500 VRB03KT P6SM VCTS BKN015CB
     FM201700 25005KT 6SM SHRA BR VCTS BKN025CB
     FM201900 25004KT P6SM VCTS BKN035CB
     FM210200 00000KT 4SM BR VCTS BKN050CB
     FM210300 00000KT 2SM BR BKN040
     FM210500 00000KT 3/4SM BR BKN001=



000
FTUS41 KRLX 200800 AAC
TAFBKW
TAF AMD
KBKW 200832Z 2009/2106 VRB03KT 3SM BR SKC
      TEMPO 2009/2010 1SM BR
     FM201200 00000KT P6SM VCTS BKN025CB
     FM201500 27005KT P6SM BKN025
     FM201600 27006KT P6SM VCTS BKN025CB
     FM201800 26007KT 6SM SHRA BR VCTS BKN025CB
     FM201900 26007KT P6SM VCTS BKN035CB
     FM210200 00000KT P6SM BKN040=



000
FTUS41 KRLX 200800 AAA
TAFHTS
TAF AMD
KHTS 200828Z 2008/2106 VRB03KT 4SM BR FEW040
      TEMPO 2008/2009 6SM BR BKN080
     FM200900 22004KT P6SM VCTS OVC035CB
     FM201100 00000KT 3SM SHRA BR VCTS OVC025CB
     FM201500 20005KT P6SM BKN025
     FM201700 24008KT P6SM VCTS BKN035CB
     FM202100 24006KT P6SM BKN040
     FM202200 24005KT P6SM VCTS BKN040CB
     FM210200 VRB03KT 6SM BR BKN200=



000
FTUS41 KRLX 200800 AAB
TAFPKB
TAF AMD
KPKB 200828Z 2008/2106 VRB03KT 5SM BR SCT025 BKN050
      TEMPO 2008/2011 5SM TSRA BR BKN025CB
     FM201100 00000KT P6SM VCTS OVC025CB
     FM201300 VRB03KT P6SM SHRA VCTS OVC025CB
     FM201500 VRB03KT P6SM BKN025
     FM201700 23006KT P6SM VCTS BKN035CB
     FM210000 VRB03KT P6SM SCT050
     FM210200 00000KT 6SM BR BKN200
     FM210500 00000KT 1SM BR BKN001
      AMD NOT SKED=



000
FTUS41 KRLX 200800 AAA
TAFCRW
TAF AMD
KCRW 200828Z 2008/2106 00000KT 1 1/2SM BR SCT001
      TEMPO 2008/2010 4SM BR SCT001
     FM201000 VRB03KT 5SM BR BKN035
     FM201200 00000KT 6SM SHRA BR VCTS OVC025CB
     FM201600 24006KT P6SM SHRA VCTS BKN025CB
     FM201800 25007KT P6SM VCTS BKN035CB
     FM202300 23004KT P6SM BKN050
     FM210200 00000KT 6SM BR BKN120
     FM210500 00000KT 2SM BR BKN130=



000
FTUS41 KRLX 200600 AAA
TAFPKB
TAF AMD
KPKB 200639Z 2007/2106 VRB03KT 5SM BR VCTS SCT025 BKN050CB
      TEMPO 2007/2009 2SM TSRA BR BKN025CB
     FM200900 00000KT 6SM SHRA BR VCTS OVC025CB
     FM201100 00000KT P6SM VCTS OVC025CB
     FM201300 VRB03KT P6SM SHRA VCTS OVC025CB
     FM201500 VRB03KT P6SM BKN025
     FM201700 23006KT P6SM VCTS BKN035CB
     FM210000 VRB03KT P6SM SCT050
     FM210200 00000KT 6SM BR BKN200
     FM210500 00000KT 1SM BR BKN001=



000
FTUS41 KRLX 200600 AAB
TAFBKW
TAF AMD
KBKW 200623Z 2006/2106 VRB03KT 1/4SM FG VV001
      TEMPO 2006/2009 2SM BR BKN004
     FM201000 00000KT 4SM BR SCT004 BKN035
     FM201200 00000KT P6SM VCTS BKN025CB
     FM201500 27005KT P6SM BKN025
     FM201600 27006KT P6SM VCTS BKN025CB
     FM201800 26007KT 6SM SHRA BR VCTS BKN025CB
     FM201900 26007KT P6SM VCTS BKN035CB
     FM210200 00000KT P6SM BKN040=



000
FTUS41 KRLX 200500 AAA
TAFBKW
TAF AMD
KBKW 200555Z 2006/2106 VRB03KT 5SM BR FEW070
      TEMPO 2006/2009 1SM BR
     FM201100 00000KT 6SM BR BKN025
     FM201200 00000KT P6SM VCTS BKN025CB
     FM201500 27005KT P6SM BKN025
     FM201600 27006KT P6SM VCTS BKN025CB
     FM201800 26007KT 6SM SHRA BR VCTS BKN025CB
     FM201900 26007KT P6SM VCTS BKN035CB
     FM210200 00000KT P6SM BKN040=



000
FTUS41 KRLX 200500 RRA
TAFPKB
TAF
KPKB 200546Z 2006/2106 VRB03KT 5SM BR SCT025
     FM200900 00000KT 6SM SHRA BR VCTS OVC025CB
     FM201100 00000KT P6SM VCTS OVC025CB
     FM201300 VRB03KT P6SM SHRA VCTS OVC025CB
     FM201500 VRB03KT P6SM BKN025
     FM201700 23006KT P6SM VCTS BKN035CB
     FM210000 VRB03KT P6SM SCT050
     FM210200 00000KT 6SM BR BKN200
     FM210500 00000KT 1SM BR BKN001
      AMD NOT SKED=



000
FTUS41 KRLX 200500 RRA
TAFBKW
TAF
KBKW 200546Z 2006/2106 VRB03KT 5SM BR FEW070
     FM201100 00000KT 6SM BR BKN025
     FM201200 00000KT P6SM VCTS BKN025CB
     FM201500 27005KT P6SM BKN025
     FM201600 27006KT P6SM VCTS BKN025CB
     FM201800 26007KT 6SM SHRA BR VCTS BKN025CB
     FM201900 26007KT P6SM VCTS BKN035CB
     FM210200 00000KT P6SM BKN040=



000
FTUS41 KRLX 200500 RRA
TAFEKN
TAF
KEKN 200546Z 2006/2106 00000KT 1/4SM FG VV001
      TEMPO 2006/2009 2SM BR BKN004
     FM200900 00000KT 4SM BR BKN025
     FM201200 00000KT 6SM SHRA BR VCTS BKN015CB
     FM201400 VRB03KT P6SM VCTS BKN015CB
     FM201700 25005KT 6SM SHRA BR VCTS BKN025CB
     FM201900 25004KT P6SM VCTS BKN035CB
     FM210200 00000KT 4SM BR VCTS BKN050CB
     FM210300 00000KT 2SM BR BKN040
     FM210500 00000KT 3/4SM BR BKN001=



000
FTUS41 KRLX 200500 RRA
TAFCKB
TAF
KCKB 200546Z 2006/2106 VRB03KT 4SM BR FEW040
      TEMPO 2006/2008 3/4SM BR SCT001
     FM200800 00000KT 6SM BR BKN035
     FM200900 00000KT P6SM BKN025
     FM201100 00000KT 6SM SHRA BR VCTS OVC025CB
     FM201300 VRB03KT P6SM VCTS OVC025CB
     FM201700 23006KT 6SM SHRA BR VCTS BKN025CB
     FM201900 23006KT P6SM VCTS BKN035CB
     FM210300 00000KT 4SM BR BKN100=



000
FTUS41 KRLX 200500 RRA
TAFCRW
TAF
KCRW 200546Z 2006/2106 00000KT 1 1/2SM BR SCT001
      TEMPO 2006/2008 1/4SM FG VV001
     FM200800 VRB03KT 5SM BR BKN035
     FM201200 00000KT 6SM SHRA BR VCTS OVC025CB
     FM201600 24006KT P6SM SHRA VCTS BKN025CB
     FM201800 25007KT P6SM VCTS BKN035CB
     FM202300 23004KT P6SM BKN050
     FM210200 00000KT 6SM BR BKN120
     FM210500 00000KT 2SM BR BKN130=



000
FTUS41 KRLX 200500 RRA
TAFHTS
TAF
KHTS 200546Z 2006/2106 VRB03KT 6SM BR FEW040
      TEMPO 2006/2008 4SM BR
     FM200800 VRB03KT 6SM BR OVC035
     FM201100 22004KT P6SM VCTS OVC035CB
     FM201500 20005KT P6SM BKN025
     FM201700 24008KT P6SM VCTS BKN035CB
     FM202100 24006KT P6SM BKN040
     FM202200 24005KT P6SM VCTS BKN040CB
     FM210200 VRB03KT 6SM BR BKN200=



000
FTUS41 KRLX 200400 AAB
TAFCRW
TAF AMD
KCRW 200454Z 2005/2024 00000KT 1/4SM FG VV001
      TEMPO 2005/2009 2SM BR SCT001
     FM201100 00000KT 5SM SHRA BR VCTS BKN025CB
     FM201700 24005KT 6SM HZ BKN035=



000
FTUS41 KRLX 200300 AAB
TAFEKN
TAF AMD
KEKN 200353Z 2004/2024 VRB03KT 4SM BR SCT120
      TEMPO 2004/2005 2SM BR
     FM200500 00000KT 2SM BR SCT002
      TEMPO 2005/2009 3/4SM BR BKN002
     FM200900 00000KT 2SM BR SCT005 BKN025
      TEMPO 2009/2012 1SM TSRA BR BKN020CB
     FM201200 VRB03KT 3SM -SHRA BR OVC020
     FM201600 22003KT 5SM HZ BKN025
     FM201900 25005KT 6SM HZ BKN035=



    US Dept of Commerce
    National Oceanic and Atmospheric Administration
    National Weather Service
    1325 East West Highway
    Silver Spring, MD 20910
    Page Author: NWS Internet Services Team
Disclaimer
Information Quality
Credits
Glossary
Privacy Policy
Freedom of Information Act (FOIA)
About Us
Career Opportunities